Flight Track Log - Related Links

Times and Time Zones

All times are in EDT time to prevent confusion due to time zone crossing. See the N52384 flight status page for this flight to view local times or setup timezone preferences in your user account.

Time Position Orientation Groundspeed Altitude Reporting Facility
EDT Latitude Longitude Course Direction KTS MPH feet Rate Location/Type
Sat 03:06:19 PM 40.7667 -74.4333 30° Northeast 82 94 1,400  Level New York TRACON
Sat 03:07:25 PM 40.7500 -74.4167 143° Southeast 70 81 2,100 619 Climbing New York TRACON
Sat 03:08:25 PM 40.7500 -74.3833 90° East 69 79 2,700 632 Climbing New York TRACON
Sat 03:09:19 PM 40.7667 -74.3667 37° Northeast 72 83 3,300 526 Climbing New York TRACON
Sat 03:10:19 PM 40.7833 -74.3500 37° Northeast 73 84 3,700 450 Climbing New York TRACON
Sat 03:11:00 PM 40.9186 -74.3110 30° Northeast  Level FlightAware Approximate
Sat 03:11:19 PM 40.7833 -74.3333 90° East 72 83 4,200  Level New York TRACON
Sat 03:12:25 PM 40.8000 -74.3167 37° Northeast 75 86 4,800 500 Climbing New York TRACON
Sat 03:13:19 PM 40.8167 -74.3000 37° Northeast 76 87 5,200 368 Climbing New York TRACON
Sat 03:14:19 PM 40.8500 -74.2833 21° North 76 87 5,500 350 Climbing New York TRACON
Sat 03:15:19 PM 40.8667 -74.2833 360° North 94 108 5,900 286 Climbing New York TRACON
Sat 03:16:25 PM 40.9000 -74.2833 360° North 103 119 6,100 100 Climbing New York TRACON
Sat 03:17:19 PM 40.9167 -74.2833 360° North 121 139 6,100  Level New York TRACON
Sat 03:18:25 PM 40.9500 -74.2500 37° Northeast 127 146 6,100  Level New York TRACON
Sat 03:19:25 PM 40.9833 -74.2167 37° Northeast 123 142 6,100 -50 Level New York TRACON
Sat 03:20:25 PM 41.0000 -74.1833 56° Northeast 125 144 6,000 53 Descending New York TRACON
Sat 03:21:19 PM 41.0167 -74.1500 56° Northeast 120 138 6,200 53 Climbing New York TRACON
Sat 03:22:19 PM 41.0333 -74.1000 66° East 127 146 6,100 -100 Descending New York TRACON
Sat 03:23:19 PM 41.0500 -74.0667 56° Northeast 126 145 6,000 -50 Descending New York TRACON
Sat 03:24:19 PM 41.0667 -74.0333 56° Northeast 117 135 6,000  Level New York TRACON
Sat 03:25:19 PM 41.0833 -73.9833 66° East 121 139 6,000  Level New York TRACON
Sat 03:26:19 PM 41.1000 -73.9500 56° Northeast 120 138 6,000  Level New York TRACON
Sat 03:27:19 PM 41.1167 -73.9167 56° Northeast 121 139 6,000 50 Level New York TRACON
Sat 03:28:19 PM 41.1333 -73.8833 56° Northeast 117 135 6,100  Climbing New York TRACON
Sat 03:29:19 PM 41.1500 -73.8500 56° Northeast 128 147 6,000 -250 Descending New York TRACON
Sat 03:30:19 PM 41.1667 -73.8000 66° East 130 150 5,600 -450 Descending New York TRACON
Sat 03:31:19 PM 41.2000 -73.7667 37° Northeast 131 151 5,100 -300 Descending New York TRACON
Sat 03:32:19 PM 41.2167 -73.7333 56° Northeast 124 143 5,000 -50 Descending New York TRACON
Sat 03:33:19 PM 41.2333 -73.6833 66° East 117 135 5,000  Level New York TRACON
Sat 03:34:19 PM 41.2500 -73.6500 56° Northeast 120 138 5,000 50 Level New York TRACON
Sat 03:35:19 PM 41.2667 -73.6167 56° Northeast 118 136 5,100  Climbing New York TRACON
Sat 03:36:19 PM 41.2833 -73.5833 56° Northeast 123 142 5,000 -100 Descending New York TRACON
Sat 03:37:19 PM 41.2833 -73.5333 90° East 116 133 4,900  Descending New York TRACON
Sat 03:38:19 PM 41.2833 -73.5000 90° East 111 128 5,000 100 Climbing New York TRACON
Sat 03:39:19 PM 41.2667 -73.4500 114° Southeast 118 136 5,100  Climbing New York TRACON
Sat 03:40:19 PM 41.2667 -73.4167 90° East 116 133 5,000  Descending New York TRACON
Sat 03:41:19 PM 41.2667 -73.3667 90° East 116 133 5,100 50 Climbing New York TRACON
Sat 03:42:19 PM 41.2500 -73.3333 124° Southeast 115 132 5,100  Level New York TRACON
Sat 03:43:19 PM 41.2500 -73.2833 90° East 113 130 5,100  Level New York TRACON
Sat 03:44:19 PM 41.2500 -73.2500 90° East 118 136 5,100  Level New York TRACON
Sat 03:45:19 PM 41.2333 -73.2000 114° Southeast 122 140 5,100  Level New York TRACON
Sat 03:46:19 PM 41.2500 -73.1667 56° Northeast 118 136 5,100 -50 Level New York TRACON
Sat 03:47:19 PM 41.2500 -73.1167 90° East 124 143 5,000 -50 Descending New York TRACON
Sat 03:48:19 PM 41.2500 -73.0667 90° East 121 139 5,000  Level New York TRACON
Sat 03:49:19 PM 41.2500 -73.0333 90° East 119 137 5,000 50 Level New York TRACON
Sat 03:50:19 PM 41.2500 -72.9833 90° East 114 131 5,100 50 Climbing New York TRACON
Sat 03:51:19 PM 41.2667 -72.9500 56° Northeast 117 135 5,100  Level New York TRACON
Sat 03:52:19 PM 41.2667 -72.9000 90° East 116 133 5,100 -50 Level New York TRACON
Sat 03:53:19 PM 41.2500 -72.8667 124° Southeast 112 129 5,000  Descending New York TRACON
Sat 03:54:19 PM 41.2333 -72.8333 124° Southeast 107 123 5,100 50 Climbing New York TRACON
Sat 03:55:19 PM 41.2167 -72.8000 124° Southeast 108 124 5,100  Level New York TRACON
Sat 03:56:19 PM 41.2167 -72.7667 90° East 102 117 5,100 -48 Level New York TRACON
Sat 03:57:25 PM 41.1833 -72.7333 143° Southeast 102 117 5,000 -48 Descending New York TRACON
Sat 03:58:25 PM 41.1667 -72.7167 143° Southeast 101 116 5,000  Level New York TRACON
Sat 03:59:25 PM 41.1333 -72.7000 159° South 102 117 5,000  Level New York TRACON
Sat 04:00:19 PM 41.1167 -72.6667 124° Southeast 100 115 5,000  Level New York TRACON
Sat 04:01:19 PM 41.1000 -72.6500 143° Southeast 102 117 5,000 -286 Level New York TRACON
Sat 04:02:25 PM 41.0667 -72.6167 143° Southeast 112 129 4,400 -650 Descending New York TRACON
Sat 04:03:19 PM 41.0500 -72.6000 143° Southeast 115 132 3,700 -850 Descending New York TRACON
Sat 04:04:25 PM 41.0167 -72.5667 143° Southeast 116 133 2,700 -810 Descending New York TRACON
Sat 04:05:25 PM 41.0000 -72.5500 143° Southeast 118 136 2,000 -350 Descending New York TRACON
Sat 04:06:25 PM 40.9833 -72.5167 124° Southeast 106 122 2,000  Level New York TRACON
Sat 04:07:25 PM 40.9500 -72.5000 159° South 101 116 2,000 -100 Level New York TRACON
Sat 04:08:25 PM 40.9500 -72.4500 90° East 116 133 1,800 -150 Descending New York TRACON
Sat 04:09:25 PM 40.9500 -72.4167 90° East 104 120 1,700 -100 Descending New York TRACON
Sat 04:10:25 PM 40.9500 -72.3833 90° East 100 115 1,600 -200 Descending New York TRACON
Sat 04:11:25 PM 40.9500 -72.3333 90° East 106 122 1,300 -300 Descending New York TRACON

Login

Don't have an account? Register now (free) for customized features, flight alerts, and more!